AUI3155 EPWA-UKOO
Flight info
| Callsign | AUI3155 |
|---|---|
| Flight time | N/A |
| Altitude | 37000 |
| Route | XIMBA DCT OMAVA DCT BALBA DCT ROLKA/K0846F370 DCT NOLDU P156 ODSAN |
| Aircraft | B738/M-SDE2E3FGHIRWXY/LB1 |
Departure
| Time | N/A |
|---|---|
| Airport | Warsaw Chopin Airport (EPWA) |
Arrival
| Time | 2026-05-05 15:54 |
|---|---|
| Airport | Odesa International Airport (UKOO) |
| Time | Latitude | Longitude | Altitude | Speed | Heading |
|---|---|---|---|---|---|
| 2026-05-05 14:56 | 49.46952 | 25.27620 | 34965 ft | 472 kts | 137° |
| 2026-05-05 14:56 | 49.44593 | 25.31155 | 34964 ft | 471 kts | 137° |
| 2026-05-05 14:56 | 49.39889 | 25.38189 | 34966 ft | 469 kts | 137° |
| 2026-05-05 14:57 | 49.35231 | 25.45118 | 34967 ft | 470 kts | 137° |
| 2026-05-05 14:57 | 49.30534 | 25.52084 | 34966 ft | 471 kts | 137° |
| 2026-05-05 14:58 | 49.25835 | 25.59053 | 34966 ft | 470 kts | 137° |
| 2026-05-05 14:58 | 49.21125 | 25.66034 | 34966 ft | 471 kts | 137° |
| 2026-05-05 14:59 | 49.16373 | 25.73061 | 34965 ft | 471 kts | 137° |
| 2026-05-05 14:59 | 49.11664 | 25.80013 | 34965 ft | 470 kts | 138° |
| 2026-05-05 15:00 | 49.07769 | 25.85743 | 34966 ft | 470 kts | 138° |
| 2026-05-05 15:00 | 49.02284 | 25.93790 | 34966 ft | 469 kts | 138° |
| 2026-05-05 15:01 | 48.97587 | 26.00659 | 34966 ft | 468 kts | 138° |
| 2026-05-05 15:01 | 48.92909 | 26.07481 | 34965 ft | 464 kts | 138° |
| 2026-05-05 15:02 | 48.88223 | 26.14294 | 34966 ft | 465 kts | 138° |
| 2026-05-05 15:02 | 48.83533 | 26.21100 | 34966 ft | 466 kts | 138° |
| 2026-05-05 15:03 | 48.78849 | 26.27872 | 34966 ft | 465 kts | 138° |
| 2026-05-05 15:03 | 48.74188 | 26.34596 | 34966 ft | 466 kts | 138° |
| 2026-05-05 15:04 | 48.69472 | 26.41382 | 34966 ft | 467 kts | 138° |
| 2026-05-05 15:04 | 48.64764 | 26.48133 | 34965 ft | 466 kts | 138° |
| 2026-05-05 15:05 | 48.57746 | 26.58182 | 34965 ft | 465 kts | 138° |
| 2026-05-05 15:06 | 48.53030 | 26.64902 | 34966 ft | 465 kts | 138° |
| 2026-05-05 15:06 | 48.48307 | 26.71601 | 34966 ft | 466 kts | 139° |
| 2026-05-05 15:07 | 48.43687 | 26.78497 | 34963 ft | 467 kts | 133° |
| 2026-05-05 15:07 | 48.40116 | 26.86604 | 34966 ft | 471 kts | 117° |
| 2026-05-05 15:08 | 48.37536 | 26.95676 | 34966 ft | 472 kts | 114° |
| 2026-05-05 15:08 | 48.35039 | 27.04854 | 34966 ft | 474 kts | 114° |
| 2026-05-05 15:09 | 48.32538 | 27.14010 | 34966 ft | 472 kts | 114° |
| 2026-05-05 15:09 | 48.30051 | 27.23062 | 34965 ft | 470 kts | 114° |
| 2026-05-05 15:10 | 48.27539 | 27.32165 | 34967 ft | 470 kts | 114° |
| 2026-05-05 15:10 | 48.25747 | 27.38632 | 34966 ft | 472 kts | 114° |
| 2026-05-05 15:11 | 48.23235 | 27.47680 | 34966 ft | 471 kts | 114° |
| 2026-05-05 15:11 | 48.20699 | 27.56758 | 34965 ft | 471 kts | 114° |
| 2026-05-05 15:12 | 48.18158 | 27.65844 | 34967 ft | 471 kts | 115° |
| 2026-05-05 15:12 | 48.15603 | 27.74924 | 34966 ft | 472 kts | 115° |
| 2026-05-05 15:13 | 48.13058 | 27.83952 | 34964 ft | 473 kts | 115° |
| 2026-05-05 15:13 | 48.10493 | 27.93006 | 34964 ft | 470 kts | 115° |
| 2026-05-05 15:14 | 48.07942 | 28.01968 | 34966 ft | 470 kts | 115° |
| 2026-05-05 15:14 | 48.05377 | 28.10944 | 34967 ft | 471 kts | 115° |
| 2026-05-05 15:15 | 48.02787 | 28.19980 | 34967 ft | 472 kts | 115° |
| 2026-05-05 15:15 | 48.00189 | 28.29006 | 34965 ft | 472 kts | 115° |
| 2026-05-05 15:16 | 47.97601 | 28.37975 | 34969 ft | 471 kts | 115° |
| 2026-05-05 15:16 | 47.94991 | 28.46980 | 34980 ft | 471 kts | 115° |
| 2026-05-05 15:17 | 47.92386 | 28.55930 | 34991 ft | 472 kts | 115° |
| 2026-05-05 15:17 | 47.89768 | 28.64901 | 34993 ft | 472 kts | 115° |
| 2026-05-05 15:18 | 47.87120 | 28.73946 | 34994 ft | 472 kts | 116° |
| 2026-05-05 15:18 | 47.84494 | 28.82873 | 34991 ft | 471 kts | 116° |
| 2026-05-05 15:19 | 47.81827 | 28.91850 | 34994 ft | 477 kts | 115° |
| 2026-05-05 15:19 | 47.79120 | 29.00902 | 34994 ft | 480 kts | 114° |
| 2026-05-05 15:20 | 47.76428 | 29.09921 | 34992 ft | 477 kts | 113° |
| 2026-05-05 15:20 | 47.73629 | 29.18847 | 34993 ft | 476 kts | 117° |
| 2026-05-05 15:21 | 47.70201 | 29.27293 | 34993 ft | 476 kts | 123° |
| 2026-05-05 15:21 | 47.66536 | 29.35494 | 34993 ft | 477 kts | 123° |
| 2026-05-05 15:22 | 47.62842 | 29.43597 | 34992 ft | 477 kts | 124° |
| 2026-05-05 15:22 | 47.59080 | 29.51747 | 34992 ft | 477 kts | 124° |
| 2026-05-05 15:23 | 47.55328 | 29.59818 | 34992 ft | 477 kts | 124° |
| 2026-05-05 15:23 | 47.51545 | 29.67911 | 34992 ft | 476 kts | 125° |
| 2026-05-05 15:24 | 47.47772 | 29.75952 | 34993 ft | 477 kts | 125° |
| 2026-05-05 15:24 | 47.43992 | 29.83978 | 34993 ft | 477 kts | 125° |
| 2026-05-05 15:25 | 47.40203 | 29.91997 | 34749 ft | 482 kts | 125° |
| 2026-05-05 15:25 | 47.38267 | 29.96082 | 34024 ft | 477 kts | 125° |
| 2026-05-05 15:25 | 47.36401 | 30.00016 | 33019 ft | 470 kts | 125° |
| 2026-05-05 15:25 | 47.34545 | 30.03921 | 32331 ft | 469 kts | 125° |
| 2026-05-05 15:26 | 47.32648 | 30.07906 | 31547 ft | 476 kts | 124° |
| 2026-05-05 15:26 | 47.30752 | 30.11885 | 30746 ft | 481 kts | 124° |
| 2026-05-05 15:26 | 47.28834 | 30.15903 | 29908 ft | 482 kts | 124° |
| 2026-05-05 15:26 | 47.26883 | 30.19986 | 29197 ft | 482 kts | 124° |
| 2026-05-05 15:27 | 47.24963 | 30.23997 | 28599 ft | 485 kts | 124° |
| 2026-05-05 15:27 | 47.23014 | 30.28063 | 27919 ft | 488 kts | 124° |
| 2026-05-05 15:27 | 47.21020 | 30.32096 | 27227 ft | 489 kts | 128° |
| 2026-05-05 15:27 | 47.18766 | 30.35791 | 26546 ft | 491 kts | 135° |
| 2026-05-05 15:28 | 47.16124 | 30.38979 | 25839 ft | 493 kts | 146° |
| 2026-05-05 15:28 | 47.13100 | 30.41326 | 25129 ft | 493 kts | 159° |
| 2026-05-05 15:28 | 47.09815 | 30.42563 | 24394 ft | 488 kts | 172° |
| 2026-05-05 15:28 | 47.06447 | 30.43044 | 23668 ft | 481 kts | 176° |
| 2026-05-05 15:29 | 47.03154 | 30.43304 | 22943 ft | 476 kts | 177° |
| 2026-05-05 15:29 | 46.99859 | 30.43505 | 22229 ft | 471 kts | 178° |
| 2026-05-05 15:29 | 46.96636 | 30.43676 | 21529 ft | 467 kts | 178° |
| 2026-05-05 15:29 | 46.93413 | 30.43831 | 20828 ft | 463 kts | 178° |
| 2026-05-05 15:30 | 46.90216 | 30.43973 | 20125 ft | 458 kts | 178° |
| 2026-05-05 15:30 | 46.87038 | 30.44108 | 19443 ft | 453 kts | 178° |
| 2026-05-05 15:30 | 46.83927 | 30.44236 | 18737 ft | 448 kts | 178° |
| 2026-05-05 15:30 | 46.80819 | 30.44362 | 18046 ft | 443 kts | 178° |
| 2026-05-05 15:31 | 46.77784 | 30.44483 | 17368 ft | 438 kts | 178° |
| 2026-05-05 15:31 | 46.74750 | 30.44601 | 16683 ft | 433 kts | 178° |
| 2026-05-05 15:31 | 46.71785 | 30.44714 | 16013 ft | 429 kts | 178° |
| 2026-05-05 15:31 | 46.68820 | 30.44826 | 15342 ft | 424 kts | 178° |
| 2026-05-05 15:32 | 46.65871 | 30.44936 | 14673 ft | 420 kts | 178° |
| 2026-05-05 15:32 | 46.62967 | 30.45043 | 14006 ft | 415 kts | 178° |
| 2026-05-05 15:32 | 46.60129 | 30.45148 | 13375 ft | 411 kts | 178° |
| 2026-05-05 15:32 | 46.57283 | 30.45252 | 12755 ft | 407 kts | 178° |
| 2026-05-05 15:33 | 46.54517 | 30.45455 | 12244 ft | 389 kts | 172° |
| 2026-05-05 15:33 | 46.51988 | 30.46222 | 11881 ft | 361 kts | 164° |
| 2026-05-05 15:33 | 46.49619 | 30.47187 | 11503 ft | 339 kts | 163° |
| 2026-05-05 15:33 | 46.47411 | 30.48124 | 11274 ft | 333 kts | 163° |
| 2026-05-05 15:34 | 46.45176 | 30.49085 | 11088 ft | 344 kts | 162° |
| 2026-05-05 15:34 | 46.42887 | 30.50076 | 10823 ft | 342 kts | 162° |
| 2026-05-05 15:34 | 46.40618 | 30.51061 | 10510 ft | 333 kts | 162° |
| 2026-05-05 15:34 | 46.38452 | 30.52002 | 10422 ft | 318 kts | 162° |
| 2026-05-05 15:35 | 46.36390 | 30.52898 | 10320 ft | 306 kts | 162° |
| 2026-05-05 15:35 | 46.34389 | 30.53768 | 10203 ft | 295 kts | 162° |
| 2026-05-05 15:35 | 46.32449 | 30.54611 | 10078 ft | 285 kts | 162° |
| 2026-05-05 15:35 | 46.30544 | 30.55439 | 9657 ft | 288 kts | 162° |
| 2026-05-05 15:36 | 46.28635 | 30.56267 | 9270 ft | 288 kts | 162° |
| 2026-05-05 15:36 | 46.26736 | 30.57091 | 8910 ft | 288 kts | 162° |
| 2026-05-05 15:36 | 46.24813 | 30.57925 | 8547 ft | 287 kts | 162° |
| 2026-05-05 15:36 | 46.22927 | 30.58743 | 8213 ft | 284 kts | 162° |
| 2026-05-05 15:37 | 46.21077 | 30.59543 | 8024 ft | 267 kts | 162° |
| 2026-05-05 15:37 | 46.19348 | 30.60289 | 7739 ft | 258 kts | 162° |
| 2026-05-05 15:37 | 46.17648 | 30.61023 | 7423 ft | 251 kts | 162° |
| 2026-05-05 15:37 | 46.15993 | 30.61736 | 7142 ft | 247 kts | 162° |
| 2026-05-05 15:38 | 46.14348 | 30.62450 | 6863 ft | 246 kts | 160° |
| 2026-05-05 15:38 | 46.12839 | 30.63488 | 6589 ft | 243 kts | 142° |
| 2026-05-05 15:38 | 46.11694 | 30.65283 | 6305 ft | 242 kts | 118° |
| 2026-05-05 15:38 | 46.11263 | 30.67609 | 6062 ft | 240 kts | 89° |
| 2026-05-05 15:39 | 46.11477 | 30.69985 | 5794 ft | 241 kts | 77° |
| 2026-05-05 15:39 | 46.11907 | 30.72289 | 5502 ft | 240 kts | 74° |
| 2026-05-05 15:39 | 46.12376 | 30.74590 | 5226 ft | 235 kts | 74° |
| 2026-05-05 15:39 | 46.12926 | 30.76548 | 4996 ft | 233 kts | 58° |
| 2026-05-05 15:40 | 46.14039 | 30.78178 | 4716 ft | 231 kts | 30° |
| 2026-05-05 15:40 | 46.15566 | 30.78732 | 4440 ft | 230 kts | 358° |
| 2026-05-05 15:40 | 46.17137 | 30.78326 | 4199 ft | 230 kts | 345° |
| 2026-05-05 15:40 | 46.18679 | 30.77670 | 3902 ft | 229 kts | 344° |
| 2026-05-05 15:41 | 46.20167 | 30.77002 | 3665 ft | 221 kts | 343° |
| 2026-05-05 15:41 | 46.21611 | 30.76350 | 3387 ft | 215 kts | 344° |
| 2026-05-05 15:41 | 46.22509 | 30.75963 | 3233 ft | 210 kts | 345° |
| 2026-05-05 15:41 | 46.23714 | 30.75449 | 3020 ft | 206 kts | 344° |
| 2026-05-05 15:42 | 46.25065 | 30.74871 | 2804 ft | 199 kts | 345° |
| 2026-05-05 15:42 | 46.26370 | 30.74312 | 2761 ft | 189 kts | 345° |
| 2026-05-05 15:42 | 46.27572 | 30.73797 | 2733 ft | 177 kts | 345° |
| 2026-05-05 15:42 | 46.28756 | 30.73290 | 2771 ft | 182 kts | 345° |
| 2026-05-05 15:43 | 46.29993 | 30.72760 | 2494 ft | 185 kts | 345° |
| 2026-05-05 15:43 | 46.31112 | 30.72280 | 2300 ft | 174 kts | 344° |
| 2026-05-05 15:43 | 46.32266 | 30.71785 | 2048 ft | 165 kts | 343° |
| 2026-05-05 15:43 | 46.33349 | 30.71323 | 1450 ft | 169 kts | 345° |
| 2026-05-05 15:44 | 46.34478 | 30.70857 | 536 ft | 176 kts | 348° |
| 2026-05-05 15:44 | 46.35685 | 30.70378 | 734 ft | 170 kts | 338° |
| 2026-05-05 15:44 | 46.36686 | 30.70105 | 1582 ft | 150 kts | 22° |
| 2026-05-05 15:44 | 46.37651 | 30.71096 | 1295 ft | 185 kts | 56° |
| 2026-05-05 15:45 | 46.38081 | 30.72510 | 2517 ft | 141 kts | 87° |
| 2026-05-05 15:45 | 46.37978 | 30.73870 | 3009 ft | 156 kts | 112° |
| 2026-05-05 15:45 | 46.37443 | 30.75437 | 3230 ft | 175 kts | 122° |
| 2026-05-05 15:45 | 46.36759 | 30.76775 | 4133 ft | 165 kts | 128° |
| 2026-05-05 15:46 | 46.36011 | 30.78041 | 4615 ft | 175 kts | 130° |
| 2026-05-05 15:46 | 46.35160 | 30.79236 | 5337 ft | 173 kts | 142° |
| 2026-05-05 15:46 | 46.34067 | 30.79889 | 5775 ft | 184 kts | 182° |
| 2026-05-05 15:46 | 46.32722 | 30.79527 | 5927 ft | 202 kts | 197° |
| 2026-05-05 15:47 | 46.31525 | 30.78598 | 6622 ft | 191 kts | 222° |
| 2026-05-05 15:47 | 46.30947 | 30.77763 | 7245 ft | 171 kts | 227° |
| 2026-05-05 15:47 | 46.29738 | 30.75858 | 6541 ft | 219 kts | 216° |
| 2026-05-05 15:47 | 46.28439 | 30.74984 | 6921 ft | 193 kts | 191° |
| 2026-05-05 15:48 | 46.27228 | 30.74388 | 7105 ft | 192 kts | 200° |
| 2026-05-05 15:48 | 46.25866 | 30.73640 | 6528 ft | 226 kts | 199° |
| 2026-05-05 15:48 | 46.24434 | 30.73222 | 6952 ft | 191 kts | 182° |
| 2026-05-05 15:48 | 46.23136 | 30.73242 | 6641 ft | 199 kts | 166° |
| 2026-05-05 15:49 | 46.21746 | 30.73894 | 5960 ft | 217 kts | 150° |
| 2026-05-05 15:49 | 46.20810 | 30.75430 | 5823 ft | 199 kts | 105° |
| 2026-05-05 15:49 | 46.20813 | 30.77382 | 5385 ft | 204 kts | 63° |
| 2026-05-05 15:49 | 46.21826 | 30.78791 | 4745 ft | 220 kts | 20° |
| 2026-05-05 15:50 | 46.23367 | 30.78680 | 4004 ft | 233 kts | 333° |
| 2026-05-05 15:50 | 46.24755 | 30.77869 | 4199 ft | 195 kts | 347° |
| 2026-05-05 15:50 | 46.26033 | 30.77396 | 3731 ft | 201 kts | 343° |
| 2026-05-05 15:50 | 46.27374 | 30.76666 | 3146 ft | 205 kts | 334° |
| 2026-05-05 15:51 | 46.28551 | 30.75590 | 2728 ft | 202 kts | 325° |
| 2026-05-05 15:51 | 46.29691 | 30.74429 | 2421 ft | 197 kts | 327° |
| 2026-05-05 15:51 | 46.30820 | 30.73376 | 2111 ft | 193 kts | 330° |
| 2026-05-05 15:51 | 46.31979 | 30.72484 | 1832 ft | 188 kts | 335° |
| 2026-05-05 15:52 | 46.33173 | 30.71710 | 1510 ft | 187 kts | 337° |
| 2026-05-05 15:52 | 46.34336 | 30.71017 | 1316 ft | 175 kts | 340° |
| 2026-05-05 15:52 | 46.35461 | 30.70455 | 1068 ft | 172 kts | 343° |
| 2026-05-05 15:52 | 46.36613 | 30.69969 | 842 ft | 167 kts | 345° |
| 2026-05-05 15:53 | 46.37702 | 30.69498 | 665 ft | 164 kts | 339° |
| 2026-05-05 15:53 | 46.38769 | 30.68912 | 516 ft | 165 kts | 339° |
| 2026-05-05 15:53 | 46.39887 | 30.68425 | 428 ft | 167 kts | 346° |
| 2026-05-05 15:53 | 46.41003 | 30.67983 | 263 ft | 168 kts | 345° |
| 2026-05-05 15:54 | 46.42101 | 30.67537 | 165 ft | 151 kts | 343° |
| 2026-05-05 15:54 | 46.42894 | 30.67219 | 172 ft | 84 kts | 344° |
| 2026-05-05 15:54 | 46.43248 | 30.67201 | 174 ft | 29 kts | 43° |
| 2026-05-05 15:54 | 46.43318 | 30.67260 | 174 ft | 1 kts | 27° |
| 2026-05-05 15:55 | 46.43341 | 30.67275 | 173 ft | 14 kts | 23° |